sensor_id;sensor_type;location;lat;lon;timestamp;pressure;altitude;pressure_sealevel;temperature;humidity
4745;BME280;2386;42.138;24.746;2023-05-16T00:05:35;99439.59;;;15.84;100.00
4745;BME280;2386;42.138;24.746;2023-05-16T00:08:01;99445.06;;;15.84;100.00
4745;BME280;2386;42.138;24.746;2023-05-16T00:10:26;99445.84;;;15.79;100.00
4745;BME280;2386;42.138;24.746;2023-05-16T00:12:51;99449.16;;;15.81;100.00
4745;BME280;2386;42.138;24.746;2023-05-16T00:15:17;99443.41;;;15.77;100.00
4745;BME280;2386;42.138;24.746;2023-05-16T00:17:44;99448.34;;;15.91;100.00
4745;BME280;2386;42.138;24.746;2023-05-16T00:20:12;99442.63;;;15.92;100.00
4745;BME280;2386;42.138;24.746;2023-05-16T00:22:39;99434.94;;;15.89;100.00
4745;BME280;2386;42.138;24.746;2023-05-16T00:25:05;99438.50;;;15.85;100.00
4745;BME280;2386;42.138;24.746;2023-05-16T00:27:33;99431.38;;;15.84;100.00
4745;BME280;2386;42.138;24.746;2023-05-16T00:29:58;99433.56;;;15.87;100.00
4745;BME280;2386;42.138;24.746;2023-05-16T00:32:24;99431.66;;;15.87;100.00
4745;BME280;2386;42.138;24.746;2023-05-16T00:34:49;99439.03;;;15.82;100.00
4745;BME280;2386;42.138;24.746;2023-05-16T00:37:15;99439.00;;;15.71;100.00
4745;BME280;2386;42.138;24.746;2023-05-16T00:39:40;99432.72;;;15.71;100.00
4745;BME280;2386;42.138;24.746;2023-05-16T00:42:06;99437.38;;;15.75;100.00
4745;BME280;2386;42.138;24.746;2023-05-16T00:44:31;99427.53;;;15.74;100.00
4745;BME280;2386;42.138;24.746;2023-05-16T00:46:57;99423.16;;;15.73;100.00
4745;BME280;2386;42.138;24.746;2023-05-16T00:49:24;99421.50;;;15.77;100.00
4745;BME280;2386;42.138;24.746;2023-05-16T00:51:50;99411.91;;;15.65;100.00
4745;BME280;2386;42.138;24.746;2023-05-16T00:54:16;99411.38;;;15.68;100.00
4745;BME280;2386;42.138;24.746;2023-05-16T00:56:42;99410.28;;;15.74;100.00
4745;BME280;2386;42.138;24.746;2023-05-16T00:59:07;99413.00;;;15.59;100.00
4745;BME280;2386;42.138;24.746;2023-05-16T01:01:33;99412.16;;;15.63;100.00
4745;BME280;2386;42.138;24.746;2023-05-16T01:03:59;99408.91;;;15.71;100.00
4745;BME280;2386;42.138;24.746;2023-05-16T01:06:25;99411.13;;;15.74;100.00
4745;BME280;2386;42.138;24.746;2023-05-16T01:08:50;99413.00;;;15.69;100.00
4745;BME280;2386;42.138;24.746;2023-05-16T01:14:11;99420.41;;;15.78;100.00
4745;BME280;2386;42.138;24.746;2023-05-16T01:16:49;99406.16;;;15.61;100.00
4745;BME280;2386;42.138;24.746;2023-05-16T01:22:15;99404.78;;;15.64;100.00
4745;BME280;2386;42.138;24.746;2023-05-16T01:27:39;99394.09;;;15.52;100.00
4745;BME280;2386;42.138;24.746;2023-05-16T01:30:16;99410.53;;;15.57;100.00
4745;BME280;2386;42.138;24.746;2023-05-16T01:32:42;99413.78;;;15.54;100.00
4745;BME280;2386;42.138;24.746;2023-05-16T01:35:09;99388.06;;;15.50;100.00
4745;BME280;2386;42.138;24.746;2023-05-16T01:37:40;99392.19;;;15.53;100.00
4745;BME280;2386;42.138;24.746;2023-05-16T01:40:14;99382.59;;;15.50;100.00
4745;BME280;2386;42.138;24.746;2023-05-16T01:42:44;99392.19;;;15.53;100.00
4745;BME280;2386;42.138;24.746;2023-05-16T01:45:28;99390.78;;;15.45;100.00
4745;BME280;2386;42.138;24.746;2023-05-16T01:48:08;99374.91;;;15.37;100.00
4745;BME280;2386;42.138;24.746;2023-05-16T01:50:42;99387.50;;;15.43;100.00
4745;BME280;2386;42.138;24.746;2023-05-16T01:53:14;99379.84;;;15.40;100.00
4745;BME280;2386;42.138;24.746;2023-05-16T01:55:44;99373.53;;;15.39;100.00
4745;BME280;2386;42.138;24.746;2023-05-16T01:58:11;99365.63;;;15.43;100.00
4745;BME280;2386;42.138;24.746;2023-05-16T02:00:39;99368.38;;;15.48;100.00
4745;BME280;2386;42.138;24.746;2023-05-16T02:03:04;99347.59;;;15.42;100.00
4745;BME280;2386;42.138;24.746;2023-05-16T02:05:30;99351.69;;;15.44;100.00
4745;BME280;2386;42.138;24.746;2023-05-16T02:07:56;99358.81;;;15.45;100.00
4745;BME280;2386;42.138;24.746;2023-05-16T02:10:22;99349.22;;;15.43;100.00
4745;BME280;2386;42.138;24.746;2023-05-16T02:12:49;99351.41;;;15.41;100.00
4745;BME280;2386;42.138;24.746;2023-05-16T02:15:15;99345.13;;;15.40;100.00
4745;BME280;2386;42.138;24.746;2023-05-16T02:17:40;99348.69;;;15.41;100.00
4745;BME280;2386;42.138;24.746;2023-05-16T02:20:06;99358.53;;;15.47;100.00
4745;BME280;2386;42.138;24.746;2023-05-16T02:22:35;99367.56;;;15.48;100.00
4745;BME280;2386;42.138;24.746;2023-05-16T02:25:02;99356.88;;;15.41;100.00
4745;BME280;2386;42.138;24.746;2023-05-16T02:27:28;99350.59;;;15.40;100.00
4745;BME280;2386;42.138;24.746;2023-05-16T02:29:53;99358.53;;;15.47;100.00
4745;BME280;2386;42.138;24.746;2023-05-16T02:32:19;99346.19;;;15.34;100.00
4745;BME280;2386;42.138;24.746;2023-05-16T02:34:44;99341.84;;;15.38;100.00
4745;BME280;2386;42.138;24.746;2023-05-16T02:37:10;99336.09;;;15.35;100.00
4745;BME280;2386;42.138;24.746;2023-05-16T02:39:35;99342.38;;;15.35;100.00
4745;BME280;2386;42.138;24.746;2023-05-16T02:42:02;99334.44;;;15.29;100.00
4745;BME280;2386;42.138;24.746;2023-05-16T02:44:28;99325.69;;;15.32;100.00
4745;BME280;2386;42.138;24.746;2023-05-16T02:46:53;99328.69;;;15.30;100.00
4745;BME280;2386;42.138;24.746;2023-05-16T02:49:19;99324.59;;;15.33;100.00
4745;BME280;2386;42.138;24.746;2023-05-16T02:51:45;99331.19;;;15.37;100.00
4745;BME280;2386;42.138;24.746;2023-05-16T02:54:11;99318.00;;;15.24;100.00
4745;BME280;2386;42.138;24.746;2023-05-16T02:56:36;99330.03;;;15.23;100.00
4745;BME280;2386;42.138;24.746;2023-05-16T02:59:04;99324.00;;;15.21;100.00
4745;BME280;2386;42.138;24.746;2023-05-16T03:01:29;99339.88;;;15.24;100.00
4745;BME280;2386;42.138;24.746;2023-05-16T03:03:55;99355.44;;;15.18;100.00
4745;BME280;2386;42.138;24.746;2023-05-16T03:06:21;99367.75;;;15.26;100.00
4745;BME280;2386;42.138;24.746;2023-05-16T03:08:46;99367.50;;;15.27;100.00
4745;BME280;2386;42.138;24.746;2023-05-16T03:11:13;99357.09;;;15.24;100.00
4745;BME280;2386;42.138;24.746;2023-05-16T03:13:38;99360.41;;;15.31;100.00
4745;BME280;2386;42.138;24.746;2023-05-16T03:16:04;99364.75;;;15.27;100.00
4745;BME280;2386;42.138;24.746;2023-05-16T03:18:30;99383.09;;;15.37;100.00
4745;BME280;2386;42.138;24.746;2023-05-16T03:20:56;99381.47;;;15.36;100.00
4745;BME280;2386;42.138;24.746;2023-05-16T03:23:22;99358.19;;;15.28;100.00
4745;BME280;2386;42.138;24.746;2023-05-16T03:25:47;99362.31;;;15.31;100.00
4745;BME280;2386;42.138;24.746;2023-05-16T03:28:14;99375.44;;;15.34;100.00
4745;BME280;2386;42.138;24.746;2023-05-16T03:30:40;99368.31;;;15.28;100.00
4745;BME280;2386;42.138;24.746;2023-05-16T03:33:06;99366.66;;;15.27;100.00
4745;BME280;2386;42.138;24.746;2023-05-16T03:35:32;99358.53;;;15.42;100.00
4745;BME280;2386;42.138;24.746;2023-05-16T03:37:58;99354.69;;;15.38;100.00
4745;BME280;2386;42.138;24.746;2023-05-16T03:40:24;99356.88;;;15.41;100.00
4745;BME280;2386;42.138;24.746;2023-05-16T03:42:49;99374.91;;;15.42;100.00
4745;BME280;2386;42.138;24.746;2023-05-16T03:45:15;99376.00;;;15.36;100.00
4745;BME280;2386;42.138;24.746;2023-05-16T03:47:40;99366.16;;;15.40;100.00
4745;BME280;2386;42.138;24.746;2023-05-16T03:50:06;99366.69;;;15.32;100.00
4745;BME280;2386;42.138;24.746;2023-05-16T03:52:33;99362.59;;;15.34;100.00
4745;BME280;2386;42.138;24.746;2023-05-16T03:54:58;99374.09;;;15.41;100.00
4745;BME280;2386;42.138;24.746;2023-05-16T03:57:26;99371.13;;;15.53;100.00
4745;BME280;2386;42.138;24.746;2023-05-16T03:59:51;99367.03;;;15.56;100.00
4745;BME280;2386;42.138;24.746;2023-05-16T04:02:16;99378.81;;;15.61;100.00
4745;BME280;2386;42.138;24.746;2023-05-16T04:04:42;99353.63;;;15.54;100.00
4745;BME280;2386;42.138;24.746;2023-05-16T04:07:07;99366.78;;;15.67;100.00
4745;BME280;2386;42.138;24.746;2023-05-16T04:09:33;99352.56;;;15.65;100.00
4745;BME280;2386;42.138;24.746;2023-05-16T04:11:58;99361.88;;;15.74;100.00
4745;BME280;2386;42.138;24.746;2023-05-16T04:14:26;99362.72;;;15.80;100.00
4745;BME280;2386;42.138;24.746;2023-05-16T04:16:51;99358.59;;;15.72;100.00
4745;BME280;2386;42.138;24.746;2023-05-16T04:19:16;99365.72;;;15.84;100.00
4745;BME280;2386;42.138;24.746;2023-05-16T04:21:42;99355.59;;;15.79;100.00
4745;BME280;2386;42.138;24.746;2023-05-16T04:24:07;99354.25;;;15.82;100.00
4745;BME280;2386;42.138;24.746;2023-05-16T04:26:33;99350.44;;;15.93;100.00
4745;BME280;2386;42.138;24.746;2023-05-16T04:28:58;99346.59;;;15.94;100.00
4745;BME280;2386;42.138;24.746;2023-05-16T04:31:27;99349.88;;;16.01;100.00
4745;BME280;2386;42.138;24.746;2023-05-16T04:33:52;99349.88;;;16.06;100.00
4745;BME280;2386;42.138;24.746;2023-05-16T04:36:18;99352.34;;;16.07;100.00
4745;BME280;2386;42.138;24.746;2023-05-16T04:38:44;99366.59;;;16.15;100.00
4745;BME280;2386;42.138;24.746;2023-05-16T04:41:11;99364.41;;;16.12;100.00
4745;BME280;2386;42.138;24.746;2023-05-16T04:43:37;99372.34;;;16.23;100.00
4745;BME280;2386;42.138;24.746;2023-05-16T04:46:03;99370.69;;;16.12;100.00
4745;BME280;2386;42.138;24.746;2023-05-16T04:48:28;99364.13;;;16.13;100.00
4745;BME280;2386;42.138;24.746;2023-05-16T04:50:54;99363.56;;;16.16;100.00
4745;BME280;2386;42.138;24.746;2023-05-16T04:53:20;99383.81;;;16.35;100.00
4745;BME280;2386;42.138;24.746;2023-05-16T04:55:45;99374.25;;;16.28;100.00
4745;BME280;2386;42.138;24.746;2023-05-16T04:58:11;99384.38;;;16.32;100.00
4745;BME280;2386;42.138;24.746;2023-05-16T05:00:37;99361.38;;;16.23;100.00
4745;BME280;2386;42.138;24.746;2023-05-16T05:03:03;99367.38;;;16.35;100.00
4745;BME280;2386;42.138;24.746;2023-05-16T05:05:29;99379.44;;;16.29;100.00
4745;BME280;2386;42.138;24.746;2023-05-16T05:07:54;99390.94;;;16.11;100.00
4745;BME280;2386;42.138;24.746;2023-05-16T05:10:20;99387.13;;;16.32;100.00
4745;BME280;2386;42.138;24.746;2023-05-16T05:12:45;99386.00;;;16.43;100.00
4745;BME280;2386;42.138;24.746;2023-05-16T05:15:10;99386.81;;;16.44;100.00
4745;BME280;2386;42.138;24.746;2023-05-16T05:17:37;99390.91;;;16.41;100.00
4745;BME280;2386;42.138;24.746;2023-05-16T05:20:03;99371.75;;;16.57;100.00
4745;BME280;2386;42.138;24.746;2023-05-16T05:25:54;99364.59;;;16.81;100.00
4745;BME280;2386;42.138;24.746;2023-05-16T05:28:20;99364.63;;;16.71;100.00
4745;BME280;2386;42.138;24.746;2023-05-16T05:30:45;99374.50;;;16.67;100.00
4745;BME280;2386;42.138;24.746;2023-05-16T05:33:14;99387.06;;;16.78;100.00
4745;BME280;2386;42.138;24.746;2023-05-16T05:35:40;99363.78;;;16.81;100.00
4745;BME280;2386;42.138;24.746;2023-05-16T05:38:06;99372.25;;;16.89;100.00
4745;BME280;2386;42.138;24.746;2023-05-16T05:40:32;99363.50;;;16.87;100.00
4745;BME280;2386;42.138;24.746;2023-05-16T05:42:58;99351.16;;;16.90;100.00
4745;BME280;2386;42.138;24.746;2023-05-16T05:45:23;99354.06;;;17.08;100.00
4745;BME280;2386;42.138;24.746;2023-05-16T05:47:48;99362.25;;;17.19;100.00
4745;BME280;2386;42.138;24.746;2023-05-16T05:50:14;99335.72;;;17.09;100.00
4745;BME280;2386;42.138;24.746;2023-05-16T05:52:40;99350.56;;;17.03;100.00
4745;BME280;2386;42.138;24.746;2023-05-16T05:55:06;99363.72;;;17.01;100.00
4745;BME280;2386;42.138;24.746;2023-05-16T05:57:31;99352.56;;;16.57;100.00
4745;BME280;2386;42.138;24.746;2023-05-16T05:59:57;99360.75;;;16.82;100.00
4745;BME280;2386;42.138;24.746;2023-05-16T06:02:22;99339.13;;;16.75;100.00
4745;BME280;2386;42.138;24.746;2023-05-16T06:04:47;99343.78;;;16.85;100.00
4745;BME280;2386;42.138;24.746;2023-05-16T06:07:13;99360.44;;;16.99;100.00
4745;BME280;2386;42.138;24.746;2023-05-16T06:09:40;99351.94;;;17.00;100.00
4745;BME280;2386;42.138;24.746;2023-05-16T06:12:07;99355.25;;;16.97;100.00
4745;BME280;2386;42.138;24.746;2023-05-16T06:14:32;99377.16;;;17.02;100.00
4745;BME280;2386;42.138;24.746;2023-05-16T06:16:57;99356.09;;;16.93;100.00
4745;BME280;2386;42.138;24.746;2023-05-16T06:19:23;99366.75;;;16.99;100.00
4745;BME280;2386;42.138;24.746;2023-05-16T06:21:48;99394.41;;;17.08;100.00
4745;BME280;2386;42.138;24.746;2023-05-16T06:24:14;99408.13;;;16.93;100.00
4745;BME280;2386;42.138;24.746;2023-05-16T06:26:39;99361.53;;;16.98;100.00
4745;BME280;2386;42.138;24.746;2023-05-16T06:29:05;99349.75;;;17.02;100.00
4745;BME280;2386;42.138;24.746;2023-05-16T06:31:49;99374.31;;;17.18;100.00
4745;BME280;2386;42.138;24.746;2023-05-16T06:34:14;99367.75;;;17.14;100.00
4745;BME280;2386;42.138;24.746;2023-05-16T06:36:40;99388.84;;;17.23;100.00
4745;BME280;2386;42.138;24.746;2023-05-16T06:39:05;99353.50;;;17.17;100.00
4745;BME280;2386;42.138;24.746;2023-05-16T06:41:31;99336.47;;;17.25;100.00
4745;BME280;2386;42.138;24.746;2023-05-16T06:43:57;99337.25;;;17.35;100.00
4745;BME280;2386;42.138;24.746;2023-05-16T06:46:22;99349.53;;;17.43;100.00
4745;BME280;2386;42.138;24.746;2023-05-16T06:48:47;99344.63;;;17.40;100.00
4745;BME280;2386;42.138;24.746;2023-05-16T06:51:13;99347.97;;;17.27;100.00
4745;BME280;2386;42.138;24.746;2023-05-16T06:53:38;99347.34;;;17.45;100.00
4745;BME280;2386;42.138;24.746;2023-05-16T06:56:04;99327.03;;;17.46;100.00
4745;BME280;2386;42.138;24.746;2023-05-16T06:58:29;99340.09;;;17.64;100.00
4745;BME280;2386;42.138;24.746;2023-05-16T07:11:00;99312.53;;;17.85;100.00
4745;BME280;2386;42.138;24.746;2023-05-16T07:13:26;99331.38;;;17.96;100.00
4745;BME280;2386;42.138;24.746;2023-05-16T07:15:51;99336.25;;;18.04;100.00
4745;BME280;2386;42.138;24.746;2023-05-16T07:18:17;99321.94;;;18.08;100.00
4745;BME280;2386;42.138;24.746;2023-05-16T07:20:43;99323.50;;;18.19;100.00
4745;BME280;2386;42.138;24.746;2023-05-16T07:23:10;99322.59;;;18.28;100.00
4745;BME280;2386;42.138;24.746;2023-05-16T07:25:35;99324.19;;;18.34;100.00
4745;BME280;2386;42.138;24.746;2023-05-16T07:28:01;99323.53;;;18.48;100.00
4745;BME280;2386;42.138;24.746;2023-05-16T07:30:26;99311.09;;;18.55;100.00
4745;BME280;2386;42.138;24.746;2023-05-16T07:32:52;99309.09;;;18.61;100.00
4745;BME280;2386;42.138;24.746;2023-05-16T07:35:17;99307.69;;;18.63;100.00
4745;BME280;2386;42.138;24.746;2023-05-16T07:37:43;99319.16;;;18.70;100.00
4745;BME280;2386;42.138;24.746;2023-05-16T07:40:10;99307.16;;;18.61;100.00
4745;BME280;2386;42.138;24.746;2023-05-16T07:42:35;99310.03;;;18.75;100.00
4745;BME280;2386;42.138;24.746;2023-05-16T07:45:01;99305.03;;;18.82;100.00
4745;BME280;2386;42.138;24.746;2023-05-16T07:47:26;99311.44;;;18.73;100.00
4745;BME280;2386;42.138;24.746;2023-05-16T07:49:52;99303.31;;;18.62;100.00
4745;BME280;2386;42.138;24.746;2023-05-16T07:52:17;99304.59;;;18.70;100.00
4745;BME280;2386;42.138;24.746;2023-05-16T07:54:45;99308.69;;;18.73;100.00
4745;BME280;2386;42.138;24.746;2023-05-16T07:57:40;99301.97;;;18.84;100.00
4745;BME280;2386;42.138;24.746;2023-05-16T08:00:16;99293.16;;;18.58;100.00
4745;BME280;2386;42.138;24.746;2023-05-16T08:02:45;99291.34;;;18.77;100.00
4745;BME280;2386;42.138;24.746;2023-05-16T08:05:12;99279.19;;;18.83;100.00
4745;BME280;2386;42.138;24.746;2023-05-16T08:07:37;99294.38;;;18.99;100.00
4745;BME280;2386;42.138;24.746;2023-05-16T08:10:03;99282.78;;;19.02;100.00
4745;BME280;2386;42.138;24.746;2023-05-16T08:12:29;99296.16;;;19.09;100.00
4745;BME280;2386;42.138;24.746;2023-05-16T08:14:59;99272.97;;;18.96;100.00
4745;BME280;2386;42.138;24.746;2023-05-16T08:17:34;99277.00;;;19.04;100.00
4745;BME280;2386;42.138;24.746;2023-05-16T08:20:00;99283.19;;;19.15;100.00
4745;BME280;2386;42.138;24.746;2023-05-16T08:22:26;99290.41;;;19.29;100.00
4745;BME280;2386;42.138;24.746;2023-05-16T08:25:01;99279.91;;;19.31;100.00
4745;BME280;2386;42.138;24.746;2023-05-16T08:27:33;99278.50;;;19.34;100.00
4745;BME280;2386;42.138;24.746;2023-05-16T08:29:58;99287.34;;;19.31;100.00
4745;BME280;2386;42.138;24.746;2023-05-16T08:32:24;99268.84;;;19.18;100.00
4745;BME280;2386;42.138;24.746;2023-05-16T08:34:53;99300.72;;;19.19;100.00
4745;BME280;2386;42.138;24.746;2023-05-16T09:13:44;99263.44;;;20.15;100.00
4745;BME280;2386;42.138;24.746;2023-05-16T09:16:12;99267.03;;;20.29;99.07
4745;BME280;2386;42.138;24.746;2023-05-16T09:18:46;99262.00;;;20.50;97.47
4745;BME280;2386;42.138;24.746;2023-05-16T09:21:16;99263.34;;;20.66;94.40
4745;BME280;2386;42.138;24.746;2023-05-16T09:23:42;99264.34;;;20.84;92.85
4745;BME280;2386;42.138;24.746;2023-05-16T09:26:08;99244.63;;;20.91;94.99
4745;BME280;2386;42.138;24.746;2023-05-16T09:28:36;99270.97;;;20.97;92.61
4745;BME280;2386;42.138;24.746;2023-05-16T09:31:02;99256.66;;;20.95;93.56
4745;BME280;2386;42.138;24.746;2023-05-16T09:33:28;99251.97;;;20.95;93.20
4745;BME280;2386;42.138;24.746;2023-05-16T09:35:58;99240.34;;;20.85;93.02
4745;BME280;2386;42.138;24.746;2023-05-16T09:38:25;99250.38;;;20.67;95.03
4745;BME280;2386;42.138;24.746;2023-05-16T09:44:05;99228.31;;;20.53;98.23
4745;BME280;2386;42.138;24.746;2023-05-16T09:46:33;99243.13;;;20.57;96.98
4745;BME280;2386;42.138;24.746;2023-05-16T09:49:02;99233.53;;;20.55;99.36
4745;BME280;2386;42.138;24.746;2023-05-16T09:51:27;99221.69;;;20.54;98.68
4745;BME280;2386;42.138;24.746;2023-05-16T09:53:53;99202.41;;;20.54;100.00
4745;BME280;2386;42.138;24.746;2023-05-16T09:56:18;99211.91;;;20.62;99.75
4745;BME280;2386;42.138;24.746;2023-05-16T09:58:45;99215.06;;;20.69;100.00
4745;BME280;2386;42.138;24.746;2023-05-16T10:01:11;99221.69;;;20.68;99.22
4745;BME280;2386;42.138;24.746;2023-05-16T10:03:38;99225.22;;;20.82;97.99
4745;BME280;2386;42.138;24.746;2023-05-16T10:06:05;99233.50;;;20.82;95.65
4745;BME280;2386;42.138;24.746;2023-05-16T10:08:32;99239.81;;;20.96;95.96
4745;BME280;2386;42.138;24.746;2023-05-16T10:11:03;99249.63;;;21.03;93.14
4745;BME280;2386;42.138;24.746;2023-05-16T10:13:31;99248.38;;;21.09;93.29
4745;BME280;2386;42.138;24.746;2023-05-16T10:15:58;99238.16;;;21.23;94.21
4745;BME280;2386;42.138;24.746;2023-05-16T10:18:31;99235.06;;;21.38;91.64
4745;BME280;2386;42.138;24.746;2023-05-16T10:21:03;99201.75;;;21.35;89.39
4745;BME280;2386;42.138;24.746;2023-05-16T10:23:30;99202.44;;;21.40;88.44
4745;BME280;2386;42.138;24.746;2023-05-16T10:25:57;99196.69;;;21.50;87.83
4745;BME280;2386;42.138;24.746;2023-05-16T10:28:23;99186.28;;;21.47;88.91
4745;BME280;2386;42.138;24.746;2023-05-16T10:30:50;99177.00;;;21.43;91.28
4745;BME280;2386;42.138;24.746;2023-05-16T10:33:17;99192.91;;;20.74;90.18
4745;BME280;2386;42.138;24.746;2023-05-16T10:35:43;99185.28;;;20.93;91.38
4745;BME280;2386;42.138;24.746;2023-05-16T10:38:16;99179.81;;;21.16;91.61
4745;BME280;2386;42.138;24.746;2023-05-16T10:40:45;99175.41;;;21.28;93.08
4745;BME280;2386;42.138;24.746;2023-05-16T10:43:24;99171.66;;;21.24;92.02
4745;BME280;2386;42.138;24.746;2023-05-16T10:46:04;99162.81;;;21.36;90.43
4745;BME280;2386;42.138;24.746;2023-05-16T10:48:33;99160.78;;;21.73;90.56
4745;BME280;2386;42.138;24.746;2023-05-16T10:53:52;99141.88;;;22.19;87.79
4745;BME280;2386;42.138;24.746;2023-05-16T10:56:25;99137.34;;;22.23;86.16
4745;BME280;2386;42.138;24.746;2023-05-16T10:58:52;99154.91;;;22.27;84.75
4745;BME280;2386;42.138;24.746;2023-05-16T11:04:10;99145.66;;;22.01;86.12
4745;BME280;2386;42.138;24.746;2023-05-16T11:14:21;99149.22;;;22.24;84.08
4745;BME280;2386;42.138;24.746;2023-05-16T11:16:49;99141.41;;;22.26;87.03
4745;BME280;2386;42.138;24.746;2023-05-16T11:25:02;99141.16;;;22.05;88.70
4745;BME280;2386;42.138;24.746;2023-05-16T11:27:38;99141.03;;;21.88;87.61
4745;BME280;2386;42.138;24.746;2023-05-16T11:32:37;99136.78;;;21.82;88.19
4745;BME280;2386;42.138;24.746;2023-05-16T11:35:06;99147.84;;;21.82;90.16
4745;BME280;2386;42.138;24.746;2023-05-16T11:37:33;99156.13;;;21.82;90.27
4745;BME280;2386;42.138;24.746;2023-05-16T11:40:02;99150.47;;;21.87;90.22
4745;BME280;2386;42.138;24.746;2023-05-16T11:42:38;99142.31;;;21.82;91.17
4745;BME280;2386;42.138;24.746;2023-05-16T11:45:16;99123.94;;;21.77;91.73
4745;BME280;2386;42.138;24.746;2023-05-16T11:55:21;99134.41;;;23.20;83.81
4745;BME280;2386;42.138;24.746;2023-05-16T11:57:49;99128.03;;;23.45;82.87
4745;BME280;2386;42.138;24.746;2023-05-16T12:00:23;99145.31;;;23.59;78.82
4745;BME280;2386;42.138;24.746;2023-05-16T12:02:51;99128.84;;;23.63;80.58
4745;BME280;2386;42.138;24.746;2023-05-16T12:05:20;99112.03;;;23.77;81.32
4745;BME280;2386;42.138;24.746;2023-05-16T12:07:51;99108.56;;;23.80;80.82
4745;BME280;2386;42.138;24.746;2023-05-16T12:10:20;99124.22;;;23.84;81.27
4745;BME280;2386;42.138;24.746;2023-05-16T12:12:49;99136.47;;;23.75;79.01
4745;BME280;2386;42.138;24.746;2023-05-16T12:15:18;99146.88;;;23.78;79.28
4745;BME280;2386;42.138;24.746;2023-05-16T12:17:46;99143.69;;;23.24;78.93
4745;BME280;2386;42.138;24.746;2023-05-16T12:20:25;99148.88;;;23.34;79.48
4745;BME280;2386;42.138;24.746;2023-05-16T21:12:30;99132.09;;;18.67;100.00
4745;BME280;2386;42.138;24.746;2023-05-16T21:14:56;99136.84;;;18.61;100.00
4745;BME280;2386;42.138;24.746;2023-05-16T21:17:22;99122.66;;;18.54;100.00
4745;BME280;2386;42.138;24.746;2023-05-16T21:19:47;99121.53;;;18.55;100.00
4745;BME280;2386;42.138;24.746;2023-05-16T21:22:12;99119.22;;;18.44;100.00
4745;BME280;2386;42.138;24.746;2023-05-16T21:24:38;99111.63;;;18.35;100.00
4745;BME280;2386;42.138;24.746;2023-05-16T21:27:03;99108.38;;;18.33;100.00
4745;BME280;2386;42.138;24.746;2023-05-16T21:29:29;99097.97;;;18.30;100.00
4745;BME280;2386;42.138;24.746;2023-05-16T21:31:54;99087.03;;;18.25;100.00
4745;BME280;2386;42.138;24.746;2023-05-16T21:34:20;99100.78;;;18.25;100.00
4745;BME280;2386;42.138;24.746;2023-05-16T21:36:45;99094.53;;;18.20;100.00
4745;BME280;2386;42.138;24.746;2023-05-16T21:39:11;99093.41;;;18.21;100.00
4745;BME280;2386;42.138;24.746;2023-05-16T21:41:36;99101.88;;;18.24;100.00
4745;BME280;2386;42.138;24.746;2023-05-16T21:44:01;99081.16;;;18.13;100.00
4745;BME280;2386;42.138;24.746;2023-05-16T21:46:27;99074.56;;;18.14;100.00
4745;BME280;2386;42.138;24.746;2023-05-16T21:48:52;99086.13;;;18.11;100.00
4745;BME280;2386;42.138;24.746;2023-05-16T21:51:18;99096.22;;;18.16;100.00
4745;BME280;2386;42.138;24.746;2023-05-16T21:53:43;99097.03;;;18.16;100.00
4745;BME280;2386;42.138;24.746;2023-05-16T21:56:11;99083.31;;;18.16;100.00
4745;BME280;2386;42.138;24.746;2023-05-16T21:58:36;99073.63;;;18.00;100.00
4745;BME280;2386;42.138;24.746;2023-05-16T22:01:02;99073.34;;;18.01;100.00
4745;BME280;2386;42.138;24.746;2023-05-16T22:03:28;99072.63;;;17.91;100.00
4745;BME280;2386;42.138;24.746;2023-05-16T22:05:53;99083.38;;;17.87;100.00
4745;BME280;2386;42.138;24.746;2023-05-16T22:08:18;99074.91;;;17.84;100.00
4745;BME280;2386;42.138;24.746;2023-05-16T22:10:44;99061.19;;;17.84;100.00
4745;BME280;2386;42.138;24.746;2023-05-16T22:13:09;99066.19;;;17.82;100.00
4745;BME280;2386;42.138;24.746;2023-05-16T22:15:35;99071.16;;;17.80;100.00
4745;BME280;2386;42.138;24.746;2023-05-16T22:18:00;99050.91;;;17.76;100.00
4745;BME280;2386;42.138;24.746;2023-05-16T22:20:26;99037.69;;;17.78;100.00
4745;BME280;2386;42.138;24.746;2023-05-16T22:22:51;99022.41;;;17.71;100.00
4745;BME280;2386;42.138;24.746;2023-05-16T22:25:17;99028.47;;;17.68;100.00
4745;BME280;2386;42.138;24.746;2023-05-16T22:27:42;99037.84;;;17.62;100.00
4745;BME280;2386;42.138;24.746;2023-05-16T22:30:08;99045.00;;;17.58;100.00
4745;BME280;2386;42.138;24.746;2023-05-16T22:32:33;99040.69;;;17.52;100.00
4745;BME280;2386;42.138;24.746;2023-05-16T22:34:59;99046.69;;;17.54;100.00
4745;BME280;2386;42.138;24.746;2023-05-16T22:37:24;99044.84;;;17.50;100.00
4745;BME280;2386;42.138;24.746;2023-05-16T22:39:51;99047.03;;;17.48;100.00
4745;BME280;2386;42.138;24.746;2023-05-16T22:42:17;99047.63;;;17.45;100.00
4745;BME280;2386;42.138;24.746;2023-05-16T22:44:43;99036.22;;;17.32;98.10
4745;BME280;2386;42.138;24.746;2023-05-16T22:47:08;99035.16;;;17.28;99.22
4745;BME280;2386;42.138;24.746;2023-05-16T22:49:33;99021.69;;;17.32;97.55
4745;BME280;2386;42.138;24.746;2023-05-16T22:51:59;99013.47;;;17.32;96.99
4745;BME280;2386;42.138;24.746;2023-05-16T22:54:24;99025.34;;;17.22;96.93
4745;BME280;2386;42.138;24.746;2023-05-16T22:56:50;99026.81;;;17.15;100.00
4745;BME280;2386;42.138;24.746;2023-05-16T22:59:15;99035.84;;;17.15;100.00
4745;BME280;2386;42.138;24.746;2023-05-16T23:01:41;99021.06;;;17.11;100.00
4745;BME280;2386;42.138;24.746;2023-05-16T23:04:06;99034.44;;;17.18;100.00
4745;BME280;2386;42.138;24.746;2023-05-16T23:06:32;99029.53;;;17.15;100.00
4745;BME280;2386;42.138;24.746;2023-05-16T23:08:58;99043.78;;;17.17;100.00
4745;BME280;2386;42.138;24.746;2023-05-16T23:11:28;99048.31;;;17.02;100.00
4745;BME280;2386;42.138;24.746;2023-05-16T23:13:54;99054.91;;;17.01;100.00
4745;BME280;2386;42.138;24.746;2023-05-16T23:16:19;99059.03;;;16.99;100.00
4745;BME280;2386;42.138;24.746;2023-05-16T23:18:45;99052.56;;;16.85;100.00
4745;BME280;2386;42.138;24.746;2023-05-16T23:21:10;99050.97;;;16.79;99.72
4745;BME280;2386;42.138;24.746;2023-05-16T23:23:35;99060.06;;;16.69;100.00
4745;BME280;2386;42.138;24.746;2023-05-16T23:26:01;99067.13;;;16.80;100.00